Time;durP1;ratioP1;P1;durP2;ratioP2;P2;SDS_P1;SDS_P2;PMS_P1;PMS_P2;Temp;Humidity;BMP_temperature;BMP_pressure;BME280_temperature;BME280_humidity;BME280_pressure;Samples;Min_cycle;Max_cycle;Signal;HPM_P1;HPM_P2
2021/09/09 00:02:25;;;;;;;;;;;16.90;1.00;;;;;;5102341;28;19931;-72
2021/09/09 00:04:50;;;;;;;;;;;16.90;1.00;;;;;;5112031;28;20148;-72
2021/09/09 00:07:16;;;;;;;;;;;16.80;1.00;;;;;;5111692;28;19920;-71
2021/09/09 00:09:41;;;;;;;;;;;16.80;1.00;;;;;;5111216;28;20061;-72
2021/09/09 00:12:07;;;;;;;;;;;16.80;1.00;;;;;;5110232;28;19911;-71
2021/09/09 00:14:33;;;;;;;;;;;16.70;1.00;;;;;;5110157;28;20342;-72
2021/09/09 00:16:58;;;;;;;;;;;16.70;1.00;;;;;;5111189;28;20280;-71
2021/09/09 00:19:24;;;;;;;;;;;16.70;1.00;;;;;;5110156;28;19908;-72
2021/09/09 00:21:50;;;;;;;;;;;16.70;1.00;;;;;;5110371;28;19926;-71
2021/09/09 00:24:15;;;;;;;;;;;16.70;1.00;;;;;;5102703;28;19923;-70
2021/09/09 00:26:41;;;;;;;;;;;16.70;1.00;;;;;;5090675;28;19909;-70
2021/09/09 00:29:06;;;;;;;;;;;16.70;1.00;;;;;;5088997;28;19923;-71
2021/09/09 00:31:32;;;;;;;;;;;16.70;1.00;;;;;;5090723;28;19912;-71
2021/09/09 00:33:58;;;;;;;;;;;16.70;1.00;;;;;;5089005;28;19912;-71
2021/09/09 00:36:23;;;;;;;;;;;16.70;1.00;;;;;;5090603;28;20000;-71
2021/09/09 00:38:49;;;;;;;;;;;16.60;1.00;;;;;;5089567;28;20410;-70
2021/09/09 00:41:14;;;;;;;;;;;16.60;1.00;;;;;;5090879;28;20356;-70
2021/09/09 00:43:40;;;;;;;;;;;16.60;1.00;;;;;;5087659;28;20337;-70
2021/09/09 00:46:05;;;;;;;;;;;16.60;1.00;;;;;;5089911;28;20249;-71
2021/09/09 00:48:32;;;;;;;;;;;16.60;1.00;;;;;;5089486;28;19908;-71
2021/09/09 00:50:57;;;;;;;;;;;16.50;1.00;;;;;;5078256;28;19908;-71
2021/09/09 00:53:23;;;;;;;;;;;16.50;1.00;;;;;;5069084;28;19920;-71
2021/09/09 00:55:49;;;;;;;;;;;16.50;1.00;;;;;;5069848;28;20019;-70
2021/09/09 00:58:14;;;;;;;;;;;16.50;1.00;;;;;;5051011;28;20003;-70
2021/09/09 01:00:40;;;;;;;;;;;16.50;1.00;;;;;;5069275;28;19916;-71
2021/09/09 01:03:09;;;;;;;;;;;16.50;1.00;;;;;;5102336;28;20133;-71
2021/09/09 01:05:35;;;;;;;;;;;16.50;1.00;;;;;;5109785;28;19990;-71
2021/09/09 01:08:00;;;;;;;;;;;16.50;1.00;;;;;;5109858;28;19985;-71
2021/09/09 01:10:26;;;;;;;;;;;16.50;1.00;;;;;;5110256;28;19941;-70
2021/09/09 01:12:51;;;;;;;;;;;16.40;1.00;;;;;;5108032;28;19919;-71
2021/09/09 01:15:17;;;;;;;;;;;16.40;1.00;;;;;;5109435;28;20465;-71
2021/09/09 01:17:42;;;;;;;;;;;16.50;1.00;;;;;;5109887;28;19915;-71
2021/09/09 01:20:08;;;;;;;;;;;16.50;1.00;;;;;;5108912;28;19912;-71
2021/09/09 01:22:34;;;;;;;;;;;16.40;1.00;;;;;;5109363;28;19920;-72
2021/09/09 01:25:00;;;;;;;;;;;16.50;1.00;;;;;;5096114;28;19912;-71
2021/09/09 01:27:25;;;;;;;;;;;16.50;1.00;;;;;;5088829;28;19916;-71
2021/09/09 01:29:50;;;;;;;;;;;16.40;1.00;;;;;;5089007;28;19954;-71
2021/09/09 01:32:16;;;;;;;;;;;16.40;1.00;;;;;;5087996;28;19926;-71
2021/09/09 01:34:42;;;;;;;;;;;16.40;1.00;;;;;;5089144;28;20016;-71
2021/09/09 01:37:09;;;;;;;;;;;16.40;1.00;;;;;;5089168;28;20027;-71
2021/09/09 01:39:35;;;;;;;;;;;16.40;1.00;;;;;;5089386;28;19916;-71
2021/09/09 01:42:00;;;;;;;;;;;16.30;1.00;;;;;;5088688;28;19955;-72
2021/09/09 01:44:27;;;;;;;;;;;16.30;1.00;;;;;;5087566;28;19969;-73
2021/09/09 01:46:53;;;;;;;;;;;16.20;1.00;;;;;;5088864;28;19967;-73
2021/09/09 01:49:19;;;;;;;;;;;16.20;1.00;;;;;;5088634;28;19944;-71
2021/09/09 01:51:45;;;;;;;;;;;16.10;1.00;;;;;;5088629;28;19912;-72
2021/09/09 01:54:10;;;;;;;;;;;16.10;1.00;;;;;;5090819;28;19962;-72
2021/09/09 01:56:36;;;;;;;;;;;16.00;1.00;;;;;;5093422;28;20418;-72
2021/09/09 01:59:02;;;;;;;;;;;16.00;1.00;;;;;;5092334;28;19935;-72
2021/09/09 02:01:27;;;;;;;;;;;16.00;1.00;;;;;;5096456;28;19907;-72
2021/09/09 02:03:53;;;;;;;;;;;16.00;1.00;;;;;;5112482;28;19912;-72
2021/09/09 02:06:18;;;;;;;;;;;15.90;1.00;;;;;;5094930;28;20015;-70
2021/09/09 02:08:44;;;;;;;;;;;15.90;1.00;;;;;;5113574;28;19923;-70
2021/09/09 02:11:10;;;;;;;;;;;15.80;1.00;;;;;;5113539;28;19915;-70
2021/09/09 02:13:36;;;;;;;;;;;15.80;1.00;;;;;;5111893;28;19915;-70
2021/09/09 02:16:02;;;;;;;;;;;15.80;1.00;;;;;;5113074;28;20325;-70
2021/09/09 02:18:27;;;;;;;;;;;15.80;1.00;;;;;;5112545;28;19919;-70
2021/09/09 02:20:53;;;;;;;;;;;15.70;1.00;;;;;;5113709;28;20320;-70
2021/09/09 02:23:18;;;;;;;;;;;15.70;1.00;;;;;;5112973;28;20306;-70
2021/09/09 02:25:44;;;;;;;;;;;15.70;1.00;;;;;;5093421;28;20221;-72
2021/09/09 02:28:10;;;;;;;;;;;15.70;1.00;;;;;;5091716;28;20010;-72
2021/09/09 02:30:35;;;;;;;;;;;15.70;1.00;;;;;;5091967;28;19995;-71
2021/09/09 02:33:01;;;;;;;;;;;15.70;1.00;;;;;;5091819;28;19928;-72
2021/09/09 02:35:26;;;;;;;;;;;15.70;1.00;;;;;;5092422;28;19908;-72
2021/09/09 02:37:52;;;;;;;;;;;15.70;1.00;;;;;;5092563;28;20391;-72
2021/09/09 02:40:17;;;;;;;;;;;15.70;1.00;;;;;;5092356;28;19916;-71
2021/09/09 02:42:43;;;;;;;;;;;15.80;1.00;;;;;;5090555;28;19916;-72
2021/09/09 02:45:09;;;;;;;;;;;15.70;1.00;;;;;;5091933;28;20019;-72
2021/09/09 02:47:34;;;;;;;;;;;15.80;1.00;;;;;;5092097;28;19908;-72
2021/09/09 02:50:00;;;;;;;;;;;15.80;1.00;;;;;;5092117;28;19908;-71
2021/09/09 02:52:26;;;;;;;;;;;15.80;1.00;;;;;;5091310;28;19959;-71
2021/09/09 02:54:52;;;;;;;;;;;15.80;1.00;;;;;;5073792;28;20357;-71
2021/09/09 02:57:18;;;;;;;;;;;15.80;1.00;;;;;;5091490;28;20373;-72
2021/09/09 02:59:43;;;;;;;;;;;15.90;1.00;;;;;;5091668;28;20023;-71
2021/09/09 03:02:08;;;;;;;;;;;15.90;1.00;;;;;;5100146;28;20024;-71
2021/09/09 03:04:34;;;;;;;;;;;15.90;1.00;;;;;;5111815;28;20306;-71
2021/09/09 03:06:59;;;;;;;;;;;15.90;1.00;;;;;;5112398;28;19907;-71
2021/09/09 03:09:25;;;;;;;;;;;15.80;1.00;;;;;;5112292;28;19983;-71
2021/09/09 03:11:50;;;;;;;;;;;15.80;1.00;;;;;;5111910;28;20364;-70
2021/09/09 03:14:17;;;;;;;;;;;15.70;1.00;;;;;;5110693;28;19907;-71
2021/09/09 03:16:43;;;;;;;;;;;15.70;1.00;;;;;;5092291;28;20383;-71
2021/09/09 03:19:08;;;;;;;;;;;15.60;1.00;;;;;;5091092;28;19912;-72
2021/09/09 03:21:34;;;;;;;;;;;15.60;1.00;;;;;;5092303;28;19914;-71
2021/09/09 03:23:59;;;;;;;;;;;15.50;1.00;;;;;;5090851;28;19915;-71
2021/09/09 03:26:25;;;;;;;;;;;15.50;1.00;;;;;;5091869;28;19912;-71
2021/09/09 03:28:50;;;;;;;;;;;15.50;1.00;;;;;;5089917;28;19934;-71
2021/09/09 03:31:16;;;;;;;;;;;15.40;1.00;;;;;;5091780;28;19916;-71
2021/09/09 03:33:41;;;;;;;;;;;15.30;1.00;;;;;;5090344;28;20489;-71
2021/09/09 03:36:07;;;;;;;;;;;15.30;1.00;;;;;;5091632;28;20338;-71
2021/09/09 03:38:32;;;;;;;;;;;15.30;1.00;;;;;;5072896;28;19928;-71
2021/09/09 03:40:58;;;;;;;;;;;15.20;1.00;;;;;;5091249;28;19920;-72
2021/09/09 03:43:23;;;;;;;;;;;15.20;1.00;;;;;;5089332;28;19909;-71
2021/09/09 03:45:49;;;;;;;;;;;15.10;1.00;;;;;;5090869;28;20529;-71
2021/09/09 03:48:14;;;;;;;;;;;15.10;1.00;;;;;;5091481;28;19915;-71
2021/09/09 03:50:40;;;;;;;;;;;15.10;1.00;;;;;;5081594;28;19948;-71
2021/09/09 03:53:06;;;;;;;;;;;15.00;1.00;;;;;;5069873;28;19935;-70
2021/09/09 03:55:31;;;;;;;;;;;15.00;1.00;;;;;;5070820;28;19962;-71
2021/09/09 03:57:57;;;;;;;;;;;15.00;1.00;;;;;;5070087;28;19912;-71
2021/09/09 04:00:22;;;;;;;;;;;15.00;1.00;;;;;;5070177;28;19954;-71
2021/09/09 04:02:48;;;;;;;;;;;15.00;1.00;;;;;;5098493;28;19912;-71
2021/09/09 04:05:13;;;;;;;;;;;15.00;1.00;;;;;;5110442;28;19911;-72
2021/09/09 04:07:39;;;;;;;;;;;15.00;1.00;;;;;;5111446;28;19908;-71
2021/09/09 04:10:05;;;;;;;;;;;15.00;1.00;;;;;;5092685;28;19908;-70
2021/09/09 04:12:31;;;;;;;;;;;15.00;1.00;;;;;;5109139;28;20051;-70
2021/09/09 04:14:56;;;;;;;;;;;15.00;1.00;;;;;;5110066;28;20391;-70
2021/09/09 04:17:21;;;;;;;;;;;15.00;1.00;;;;;;5110633;28;19916;-70
2021/09/09 04:19:47;;;;;;;;;;;15.00;1.00;;;;;;5092590;28;20001;-72
2021/09/09 04:22:12;;;;;;;;;;;14.90;1.00;;;;;;5110249;28;20280;-72
2021/09/09 04:24:38;;;;;;;;;;;14.90;1.00;;;;;;5100366;28;19912;-71
2021/09/09 04:27:04;;;;;;;;;;;14.80;1.00;;;;;;5090469;28;19908;-71
2021/09/09 04:29:30;;;;;;;;;;;14.80;1.00;;;;;;5089261;28;19912;-72
2021/09/09 04:31:55;;;;;;;;;;;14.70;1.00;;;;;;5090063;28;20322;-72
2021/09/09 04:34:21;;;;;;;;;;;14.70;1.00;;;;;;5089655;28;20276;-71
2021/09/09 04:36:46;;;;;;;;;;;14.70;1.00;;;;;;5085945;28;19912;-71
2021/09/09 04:39:12;;;;;;;;;;;14.60;1.00;;;;;;5087501;28;19919;-71
2021/09/09 04:41:37;;;;;;;;;;;14.60;1.00;;;;;;5089653;28;20651;-72
2021/09/09 04:44:04;;;;;;;;;;;14.60;1.00;;;;;;5088401;28;19939;-72
2021/09/09 04:46:29;;;;;;;;;;;14.60;1.00;;;;;;5089775;28;19911;-72
2021/09/09 04:48:55;;;;;;;;;;;14.60;1.00;;;;;;5088937;28;19965;-71
2021/09/09 04:51:20;;;;;;;;;;;14.60;1.00;;;;;;5089998;28;19938;-72
2021/09/09 04:53:46;;;;;;;;;;;14.50;1.00;;;;;;5089468;28;19930;-72
2021/09/09 04:56:11;;;;;;;;;;;14.60;1.00;;;;;;5090160;28;19912;-72
2021/09/09 04:58:37;;;;;;;;;;;14.60;1.00;;;;;;5089389;28;19935;-71
2021/09/09 05:01:02;;;;;;;;;;;14.60;1.00;;;;;;5089837;28;19920;-72
2021/09/09 05:03:28;;;;;;;;;;;14.60;1.00;;;;;;5108331;28;20060;-72
2021/09/09 05:05:53;;;;;;;;;;;14.60;1.00;;;;;;5110587;28;19943;-71
2021/09/09 05:08:19;;;;;;;;;;;14.60;1.00;;;;;;5108741;28;19987;-72
2021/09/09 05:10:44;;;;;;;;;;;14.60;1.00;;;;;;5110102;28;19915;-72
2021/09/09 05:13:10;;;;;;;;;;;14.70;1.00;;;;;;5108544;28;20380;-71
2021/09/09 05:15:35;;;;;;;;;;;14.80;1.00;;;;;;5109334;28;20045;-72
2021/09/09 05:18:01;;;;;;;;;;;14.80;1.00;;;;;;5109807;28;19911;-72
2021/09/09 05:20:26;;;;;;;;;;;14.90;1.00;;;;;;5102183;28;20426;-74
2021/09/09 05:22:52;;;;;;;;;;;15.00;1.00;;;;;;5088932;28;19908;-72
2021/09/09 05:25:17;;;;;;;;;;;15.10;1.00;;;;;;5089823;28;19916;-72
2021/09/09 05:27:43;;;;;;;;;;;15.40;1.00;;;;;;5071199;28;19959;-71
2021/09/09 05:30:09;;;;;;;;;;;15.80;1.00;;;;;;5087951;28;19919;-71
2021/09/09 05:32:35;;;;;;;;;;;16.10;1.00;;;;;;5088039;28;19912;-71
2021/09/09 05:35:01;;;;;;;;;;;16.30;1.00;;;;;;5086778;28;19916;-70
2021/09/09 05:37:26;;;;;;;;;;;16.40;1.00;;;;;;5084982;28;20015;-73
2021/09/09 05:39:52;;;;;;;;;;;16.50;99.90;;;;;;5080639;28;20591;-74
2021/09/09 05:42:18;;;;;;;;;;;16.50;99.90;;;;;;5065414;28;20011;-74
2021/09/09 05:44:43;;;;;;;;;;;16.50;99.90;;;;;;5081032;28;19909;-74
2021/09/09 05:47:08;;;;;;;;;;;16.90;99.90;;;;;;5087941;28;19919;-73
2021/09/09 05:49:34;;;;;;;;;;;17.50;1.00;;;;;;5086461;28;19908;-72
2021/09/09 05:52:00;;;;;;;;;;;18.00;99.90;;;;;;5082800;28;20020;-73
2021/09/09 05:54:25;;;;;;;;;;;18.70;1.00;;;;;;5076430;28;19916;-71
2021/09/09 05:56:51;;;;;;;;;;;19.40;1.00;;;;;;5073860;28;20373;-72
2021/09/09 05:59:17;;;;;;;;;;;20.10;99.90;;;;;;5075139;28;19913;-71
2021/09/09 06:01:44;;;;;;;;;;;20.70;1.00;;;;;;5075058;28;19913;-75
2021/09/09 06:04:10;;;;;;;;;;;21.50;1.00;;;;;;5074605;28;19961;-71
2021/09/09 06:06:36;;;;;;;;;;;21.90;1.00;;;;;;5074608;28;20396;-72
2021/09/09 06:09:02;;;;;;;;;;;22.70;1.00;;;;;;5059320;28;20011;-73
2021/09/09 06:11:27;;;;;;;;;;;23.30;1.00;;;;;;5076926;28;20285;-71
2021/09/09 06:13:52;;;;;;;;;;;24.00;99.90;;;;;;5074266;28;19908;-72
2021/09/09 06:16:18;;;;;;;;;;;24.30;99.90;;;;;;5077144;28;20015;-73
2021/09/09 06:18:44;;;;;;;;;;;24.70;99.90;;;;;;5070266;28;19917;-73
2021/09/09 06:21:09;;;;;;;;;;;25.20;99.90;;;;;;5076126;28;19911;-73
2021/09/09 06:23:35;;;;;;;;;;;25.60;99.90;;;;;;5076085;28;19908;-73
2021/09/09 06:26:00;;;;;;;;;;;26.00;99.90;;;;;;5076323;28;20364;-74
2021/09/09 06:28:26;;;;;;;;;;;26.30;99.90;;;;;;5077708;28;19974;-72
2021/09/09 06:30:51;;;;;;;;;;;26.60;99.90;;;;;;5075035;28;20390;-73
2021/09/09 06:33:17;;;;;;;;;;;27.20;99.90;;;;;;5076019;28;19974;-71
2021/09/09 06:35:45;;;;;;;;;;;27.90;99.90;;;;;;5074670;28;20025;-72
2021/09/09 06:38:11;;;;;;;;;;;28.60;99.90;;;;;;5078823;28;20364;-72
2021/09/09 06:40:37;;;;;;;;;;;29.20;99.90;;;;;;5079072;28;19916;-71
2021/09/09 06:43:02;;;;;;;;;;;29.80;99.90;;;;;;5081532;28;20347;-73
2021/09/09 06:45:28;;;;;;;;;;;30.30;99.90;;;;;;5080190;28;19927;-71
2021/09/09 06:47:53;;;;;;;;;;;30.80;99.90;;;;;;5082300;28;20581;-72
2021/09/09 06:50:19;;;;;;;;;;;31.10;99.90;;;;;;5079213;28;19948;-72
2021/09/09 06:52:45;;;;;;;;;;;31.30;99.90;;;;;;5086735;28;19908;-71
2021/09/09 06:55:11;;;;;;;;;;;31.90;99.90;;;;;;5073526;28;19958;-72
2021/09/09 06:57:36;;;;;;;;;;;32.60;99.90;;;;;;5091741;28;20420;-72
2021/09/09 07:00:02;;;;;;;;;;;33.10;99.90;;;;;;5091997;28;19920;-71
2021/09/09 07:02:28;;;;;;;;;;;33.90;99.90;;;;;;5084412;28;19908;-72
2021/09/09 07:04:53;;;;;;;;;;;34.80;99.90;;;;;;5112064;28;19915;-72
2021/09/09 07:07:19;;;;;;;;;;;35.80;99.90;;;;;;5112500;28;19943;-73
2021/09/09 07:09:45;;;;;;;;;;;36.50;99.90;;;;;;5112494;28;19922;-72
2021/09/09 07:12:11;;;;;;;;;;;36.80;99.90;;;;;;5111293;28;19918;-73
2021/09/09 07:14:36;;;;;;;;;;;37.70;99.90;;;;;;5111372;28;19907;-72
2021/09/09 07:17:02;;;;;;;;;;;38.40;99.90;;;;;;5112512;28;20052;-73
2021/09/09 07:19:27;;;;;;;;;;;39.10;99.90;;;;;;5112229;28;19984;-72
2021/09/09 07:21:53;;;;;;;;;;;39.60;99.90;;;;;;5111780;28;19990;-72
2021/09/09 07:24:19;;;;;;;;;;;40.40;99.90;;;;;;5103822;28;19966;-72
2021/09/09 07:26:44;;;;;;;;;;;41.20;99.90;;;;;;5091765;28;19912;-72
2021/09/09 07:29:12;;;;;;;;;;;41.90;99.90;;;;;;5090282;28;19912;-71
2021/09/09 07:31:37;;;;;;;;;;;42.20;99.90;;;;;;5092411;28;19959;-70
2021/09/09 07:34:03;;;;;;;;;;;42.60;99.90;;;;;;5071278;28;20362;-71
2021/09/09 07:36:28;;;;;;;;;;;43.00;99.20;;;;;;5053373;28;19951;-72
2021/09/09 07:38:54;;;;;;;;;;;43.20;93.50;;;;;;5087873;28;19912;-72
2021/09/09 07:41:19;;;;;;;;;;;43.60;88.40;;;;;;5091927;28;19919;-71
2021/09/09 07:43:45;;;;;;;;;;;44.00;77.90;;;;;;5090156;28;19977;-72
2021/09/09 07:46:10;;;;;;;;;;;44.60;67.70;;;;;;5091512;28;19908;-72
2021/09/09 07:48:36;;;;;;;;;;;45.20;59.40;;;;;;5091119;28;20536;-70
2021/09/09 07:51:01;;;;;;;;;;;45.40;51.80;;;;;;5078680;28;19916;-70
2021/09/09 07:53:27;;;;;;;;;;;45.40;45.50;;;;;;5070863;28;20006;-71
2021/09/09 07:55:52;;;;;;;;;;;45.10;38.90;;;;;;5071692;28;19912;-70
2021/09/09 07:58:18;;;;;;;;;;;45.60;35.10;;;;;;5070785;28;19918;-69
2021/09/09 08:00:43;;;;;;;;;;;44.90;28.20;;;;;;5073669;28;19908;-72
2021/09/09 08:03:09;;;;;;;;;;;44.70;25.20;;;;;;5100296;28;19908;-73
2021/09/09 08:05:34;;;;;;;;;;;45.70;23.50;;;;;;5109303;28;19960;-71
2021/09/09 08:08:04;;;;;;;;;;;46.60;21.20;;;;;;5110130;28;19957;-71
2021/09/09 08:10:30;;;;;;;;;;;46.60;17.70;;;;;;5103071;28;19916;-71
2021/09/09 08:12:55;;;;;;;;;;;46.20;13.80;;;;;;5090775;28;19965;-70
2021/09/09 08:15:21;;;;;;;;;;;47.10;12.30;;;;;;5094115;28;19912;-72
2021/09/09 08:17:46;;;;;;;;;;;47.70;10.10;;;;;;5091880;28;19975;-72
2021/09/09 08:20:12;;;;;;;;;;;47.80;6.90;;;;;;5090812;28;19914;-72
2021/09/09 08:22:38;;;;;;;;;;;48.50;5.60;;;;;;5090238;28;19995;-72
2021/09/09 08:25:04;;;;;;;;;;;48.60;2.60;;;;;;5090871;28;19939;-71
2021/09/09 08:27:31;;;;;;;;;;;48.10;1.00;;;;;;5090886;28;19947;-72
2021/09/09 08:29:57;;;;;;;;;;;48.90;1.00;;;;;;5091091;28;19972;-72
2021/09/09 08:32:25;;;;;;;;;;;49.40;1.00;;;;;;5090391;28;19943;-71
2021/09/09 08:34:52;;;;;;;;;;;48.30;1.00;;;;;;5089821;28;20240;-72
2021/09/09 08:37:18;;;;;;;;;;;48.30;1.00;;;;;;5081331;28;19961;-71
2021/09/09 08:39:43;;;;;;;;;;;48.30;1.00;;;;;;5081671;28;20242;-69
2021/09/09 08:42:11;;;;;;;;;;;49.00;1.00;;;;;;5078030;28;19953;-69
2021/09/09 08:44:36;;;;;;;;;;;49.20;1.00;;;;;;5071794;28;20234;-70
2021/09/09 08:47:02;;;;;;;;;;;49.80;1.00;;;;;;5086289;28;19927;-71
2021/09/09 08:49:28;;;;;;;;;;;49.90;1.00;;;;;;5090186;28;20014;-71
2021/09/09 08:51:54;;;;;;;;;;;50.00;1.00;;;;;;5089067;28;19919;-72
2021/09/09 08:54:20;;;;;;;;;;;50.10;1.00;;;;;;5089500;28;19913;-70
2021/09/09 08:56:46;;;;;;;;;;;50.00;1.00;;;;;;5090127;28;19927;-73
2021/09/09 08:59:12;;;;;;;;;;;49.40;1.00;;;;;;5089423;28;19920;-70
2021/09/09 09:01:56;;;;;;;;;;;49.10;1.00;;;;;;5089556;28;19915;-71
2021/09/09 09:04:21;;;;;;;;;;;49.20;1.00;;;;;;5089378;28;19923;-73
2021/09/09 09:06:50;;;;;;;;;;;49.70;1.00;;;;;;5090920;28;19916;-73
2021/09/09 09:09:19;;;;;;;;;;;50.40;1.00;;;;;;5090441;28;19957;-73
2021/09/09 09:11:45;;;;;;;;;;;51.20;1.00;;;;;;5089496;28;20004;-72
2021/09/09 09:14:12;;;;;;;;;;;50.70;1.00;;;;;;5088985;28;19915;-73
2021/09/09 09:16:51;;;;;;;;;;;49.10;1.00;;;;;;5088934;28;20037;-72
2021/09/09 09:19:21;;;;;;;;;;;49.20;1.00;;;;;;5089725;28;20071;-72
2021/09/09 09:22:02;;;;;;;;;;;49.80;1.00;;;;;;5089230;28;20637;-71
2021/09/09 09:24:34;;;;;;;;;;;50.30;1.00;;;;;;5089378;28;20335;-72
2021/09/09 09:27:17;;;;;;;;;;;49.80;1.00;;;;;;5089505;28;19999;-72
2021/09/09 09:29:56;;;;;;;;;;;50.20;1.00;;;;;;5089077;28;19927;-72
2021/09/09 09:32:21;;;;;;;;;;;49.20;1.00;;;;;;5088374;28;19912;-71
2021/09/09 09:34:47;;;;;;;;;;;49.40;1.00;;;;;;5089054;28;19908;-71
2021/09/09 09:37:20;;;;;;;;;;;49.70;1.00;;;;;;5089546;28;20612;-70
2021/09/09 09:39:45;;;;;;;;;;;50.50;1.00;;;;;;5089020;28;20418;-70
2021/09/09 09:42:11;;;;;;;;;;;50.20;1.00;;;;;;5089133;28;19912;-71
2021/09/09 09:44:38;;;;;;;;;;;48.90;1.00;;;;;;5088294;28;19934;-71
2021/09/09 09:47:14;;;;;;;;;;;47.80;1.00;;;;;;5099559;28;19908;-71
2021/09/09 09:49:42;;;;;;;;;;;48.00;1.00;;;;;;5108144;28;19980;-72
2021/09/09 09:52:09;;;;;;;;;;;48.10;1.00;;;;;;5088121;28;19916;-71
2021/09/09 09:54:35;;;;;;;;;;;48.00;1.00;;;;;;5088977;28;20306;-70
2021/09/09 09:57:01;;;;;;;;;;;48.50;1.00;;;;;;5088725;28;19920;-72
2021/09/09 09:59:27;;;;;;;;;;;47.40;1.00;;;;;;5068135;28;19915;-71
2021/09/09 10:01:52;;;;;;;;;;;45.20;1.00;;;;;;5075863;28;19928;-70
2021/09/09 10:04:19;;;;;;;;;;;44.50;1.00;;;;;;5079617;28;19916;-72
2021/09/09 10:06:46;;;;;;;;;;;44.50;1.00;;;;;;5071537;28;19913;-73
2021/09/09 10:09:12;;;;;;;;;;;44.50;1.00;;;;;;5068955;28;19912;-70
2021/09/09 10:11:39;;;;;;;;;;;44.00;1.00;;;;;;5089330;28;19908;-73
2021/09/09 10:14:05;;;;;;;;;;;43.60;1.00;;;;;;5088288;28;19908;-73
2021/09/09 10:16:32;;;;;;;;;;;43.60;1.00;;;;;;5092480;28;19908;-73
2021/09/09 10:18:58;;;;;;;;;;;43.40;1.00;;;;;;5108290;28;20387;-72
2021/09/09 10:21:35;;;;;;;;;;;43.60;1.00;;;;;;5113245;28;19915;-72
2021/09/09 10:24:08;;;;;;;;;;;43.80;1.00;;;;;;5089002;28;19915;-72
2021/09/09 10:26:33;;;;;;;;;;;43.60;1.00;;;;;;5092690;28;19908;-72
2021/09/09 10:28:59;;;;;;;;;;;43.70;1.00;;;;;;5081723;28;19992;-72
2021/09/09 10:31:35;;;;;;;;;;;42.80;1.00;;;;;;5084082;28;19923;-71
2021/09/09 10:34:05;;;;;;;;;;;41.30;1.00;;;;;;5078892;28;19947;-72
2021/09/09 10:36:33;;;;;;;;;;;41.20;1.00;;;;;;5072012;28;20015;-72
2021/09/09 10:38:59;;;;;;;;;;;41.20;1.00;;;;;;5089212;28;19912;-72
2021/09/09 10:41:28;;;;;;;;;;;41.10;1.00;;;;;;5092385;28;19919;-73
2021/09/09 10:43:58;;;;;;;;;;;40.40;1.00;;;;;;5090836;28;19908;-72
2021/09/09 10:46:29;;;;;;;;;;;39.90;1.00;;;;;;5086913;28;19909;-72
2021/09/09 10:49:12;;;;;;;;;;;38.30;1.00;;;;;;5071928;28;19908;-71
2021/09/09 10:51:38;;;;;;;;;;;37.30;1.00;;;;;;5089648;28;20198;-71
2021/09/09 10:54:04;;;;;;;;;;;36.20;1.00;;;;;;5091430;28;19919;-73
2021/09/09 10:56:36;;;;;;;;;;;35.00;1.00;;;;;;5092594;28;20226;-72
2021/09/09 10:59:08;;;;;;;;;;;33.10;1.00;;;;;;5090879;28;19928;-71
2021/09/09 11:01:34;;;;;;;;;;;32.20;1.00;;;;;;5091379;28;19919;-71
2021/09/09 11:03:59;;;;;;;;;;;31.80;1.00;;;;;;5090791;28;19908;-72
2021/09/09 11:06:25;;;;;;;;;;;31.30;1.00;;;;;;5092118;28;19915;-74
2021/09/09 11:08:53;;;;;;;;;;;30.90;1.00;;;;;;5091776;28;20230;-72
2021/09/09 11:11:18;;;;;;;;;;;30.40;1.00;;;;;;5092439;28;19915;-71
2021/09/09 11:13:44;;;;;;;;;;;30.00;1.00;;;;;;5090209;28;19912;-73
2021/09/09 11:16:19;;;;;;;;;;;29.90;1.00;;;;;;5092223;28;19915;-74
2021/09/09 11:18:44;;;;;;;;;;;29.90;1.00;;;;;;5097301;28;20703;-70
2021/09/09 11:21:10;;;;;;;;;;;30.40;1.00;;;;;;5102753;28;19916;-71
2021/09/09 11:23:36;;;;;;;;;;;31.10;1.00;;;;;;5079435;28;19963;-73
2021/09/09 11:26:08;;;;;;;;;;;31.90;1.00;;;;;;5090720;28;20277;-73
2021/09/09 11:28:34;;;;;;;;;;;33.00;1.00;;;;;;5083733;28;20265;-73
2021/09/09 11:31:09;;;;;;;;;;;33.90;1.40;;;;;;5071807;28;19909;-72
2021/09/09 11:33:53;;;;;;;;;;;34.90;1.70;;;;;;5071563;28;19912;-72
2021/09/09 11:36:20;;;;;;;;;;;35.90;2.50;;;;;;5077727;28;19920;-72
2021/09/09 11:38:47;;;;;;;;;;;36.30;2.10;;;;;;5091730;28;19923;-73
2021/09/09 11:41:16;;;;;;;;;;;36.30;1.00;;;;;;5091694;28;20336;-73
2021/09/09 11:43:46;;;;;;;;;;;36.40;1.00;;;;;;5089921;28;19951;-73
2021/09/09 11:46:12;;;;;;;;;;;36.20;1.00;;;;;;5087056;28;19912;-72
2021/09/09 11:48:37;;;;;;;;;;;36.20;1.00;;;;;;5090659;28;19977;-72
2021/09/09 11:51:03;;;;;;;;;;;36.30;1.00;;;;;;5079598;28;19943;-71
2021/09/09 11:53:28;;;;;;;;;;;36.10;1.00;;;;;;5070726;28;20011;-72
2021/09/09 11:55:54;;;;;;;;;;;35.20;1.00;;;;;;5053145;28;19908;-72
2021/09/09 11:58:36;;;;;;;;;;;34.80;1.00;;;;;;5070741;28;19917;-73
2021/09/09 12:01:02;;;;;;;;;;;34.50;1.00;;;;;;5071137;28;19908;-73
2021/09/09 12:03:28;;;;;;;;;;;34.40;1.50;;;;;;5070483;28;19908;-72
2021/09/09 12:05:54;;;;;;;;;;;34.50;2.40;;;;;;5070942;28;20345;-73
2021/09/09 12:08:20;;;;;;;;;;;34.40;2.80;;;;;;5070855;28;19992;-72
2021/09/09 12:10:45;;;;;;;;;;;34.50;3.70;;;;;;5053174;28;20288;-73
2021/09/09 12:13:11;;;;;;;;;;;34.40;3.50;;;;;;5076646;28;19912;-73
2021/09/09 12:15:37;;;;;;;;;;;34.00;3.60;;;;;;5089778;28;20375;-73
2021/09/09 12:18:09;;;;;;;;;;;33.80;4.30;;;;;;5090710;28;19916;-73
2021/09/09 12:20:35;;;;;;;;;;;33.70;5.30;;;;;;5070849;28;19909;-73
2021/09/09 12:23:01;;;;;;;;;;;33.60;6.30;;;;;;5085156;28;19927;-73
2021/09/09 12:25:26;;;;;;;;;;;32.80;7.30;;;;;;5091219;28;19931;-73
2021/09/09 12:28:00;;;;;;;;;;;32.20;8.90;;;;;;5073339;28;20056;-72
2021/09/09 12:30:30;;;;;;;;;;;31.60;10.40;;;;;;5088091;28;19916;-73
2021/09/09 12:32:55;;;;;;;;;;;31.00;12.10;;;;;;5091278;28;19919;-71
2021/09/09 12:35:23;;;;;;;;;;;30.70;14.50;;;;;;5092019;28;19912;-74
2021/09/09 12:37:59;;;;;;;;;;;30.80;16.80;;;;;;5097027;28;19923;-71
2021/09/09 12:40:43;;;;;;;;;;;30.90;19.20;;;;;;5091631;28;19958;-72
2021/09/09 12:43:42;;;;;;;;;;;31.50;20.20;;;;;;5085825;28;19913;-72
2021/09/09 12:46:24;;;;;;;;;;;32.00;21.60;;;;;;5066849;28;19912;-72
2021/09/09 12:48:57;;;;;;;;;;;31.90;22.00;;;;;;5107444;28;19912;-72
2021/09/09 12:51:23;;;;;;;;;;;31.60;22.40;;;;;;5102461;28;20260;-73
2021/09/09 12:53:48;;;;;;;;;;;31.10;23.20;;;;;;5095961;28;19908;-72
2021/09/09 12:56:14;;;;;;;;;;;31.10;24.60;;;;;;5091196;28;19930;-72
2021/09/09 12:58:39;;;;;;;;;;;31.30;25.30;;;;;;5090289;28;19912;-72
2021/09/09 13:01:05;;;;;;;;;;;30.80;24.60;;;;;;5088090;28;19911;-73
2021/09/09 13:03:31;;;;;;;;;;;30.70;25.50;;;;;;5088921;28;19915;-72
2021/09/09 13:05:58;;;;;;;;;;;30.70;26.60;;;;;;5090183;28;19908;-73
2021/09/09 13:08:24;;;;;;;;;;;30.50;26.30;;;;;;5090391;28;19952;-71
2021/09/09 13:10:49;;;;;;;;;;;30.20;27.10;;;;;;5090079;28;20324;-73
2021/09/09 13:13:16;;;;;;;;;;;30.10;27.10;;;;;;5088921;28;19932;-71
2021/09/09 13:15:41;;;;;;;;;;;30.10;27.70;;;;;;5069508;28;19953;-71
2021/09/09 13:18:07;;;;;;;;;;;29.70;26.50;;;;;;5069366;28;19989;-71
2021/09/09 13:20:35;;;;;;;;;;;29.30;26.30;;;;;;5069293;28;19943;-72
2021/09/09 13:23:02;;;;;;;;;;;28.70;26.60;;;;;;5069246;28;19912;-71
2021/09/09 13:25:27;;;;;;;;;;;28.40;26.60;;;;;;5073351;28;20427;-70
2021/09/09 13:27:53;;;;;;;;;;;28.30;27.50;;;;;;5069653;28;19924;-71
2021/09/09 13:30:18;;;;;;;;;;;28.00;27.60;;;;;;5088919;28;19908;-72
2021/09/09 13:32:44;;;;;;;;;;;28.00;28.80;;;;;;5088333;28;19987;-72
2021/09/09 13:35:09;;;;;;;;;;;27.90;29.50;;;;;;5089921;28;19928;-71
2021/09/09 13:37:35;;;;;;;;;;;27.80;30.40;;;;;;5089851;28;19999;-72
2021/09/09 13:40:00;;;;;;;;;;;27.70;31.20;;;;;;5089365;28;19959;-73
2021/09/09 13:42:27;;;;;;;;;;;27.70;33.10;;;;;;5088982;28;19912;-73
2021/09/09 13:44:53;;;;;;;;;;;27.60;33.00;;;;;;5089544;28;20249;-72
2021/09/09 13:47:18;;;;;;;;;;;27.60;34.00;;;;;;5089672;28;19915;-74
2021/09/09 13:49:44;;;;;;;;;;;27.70;35.00;;;;;;5091533;28;19916;-73
2021/09/09 13:52:09;;;;;;;;;;;27.70;35.50;;;;;;5093233;28;19937;-72
2021/09/09 13:54:35;;;;;;;;;;;27.70;36.10;;;;;;5093994;28;20013;-72
2021/09/09 13:57:00;;;;;;;;;;;27.70;36.80;;;;;;5093935;28;20020;-73
2021/09/09 13:59:26;;;;;;;;;;;27.70;37.40;;;;;;5092574;28;19912;-72
2021/09/09 14:01:52;;;;;;;;;;;27.60;38.20;;;;;;5093124;28;19919;-72
2021/09/09 14:04:17;;;;;;;;;;;27.60;39.20;;;;;;5092689;28;20022;-73
2021/09/09 14:06:43;;;;;;;;;;;27.60;40.40;;;;;;5094032;28;19919;-73
2021/09/09 14:09:08;;;;;;;;;;;27.60;41.60;;;;;;5093549;28;19962;-71
2021/09/09 14:11:36;;;;;;;;;;;27.60;42.70;;;;;;5093665;28;20552;-71
2021/09/09 14:14:02;;;;;;;;;;;27.60;43.40;;;;;;5085784;28;20418;-72
2021/09/09 14:16:27;;;;;;;;;;;27.60;43.20;;;;;;5083882;28;19916;-72
2021/09/09 14:18:55;;;;;;;;;;;27.70;44.00;;;;;;5093461;28;20246;-72
2021/09/09 14:21:21;;;;;;;;;;;27.80;44.10;;;;;;5093677;28;20307;-73
2021/09/09 14:23:47;;;;;;;;;;;27.90;44.30;;;;;;5093524;28;19909;-72